createdAt,value
2023-03-27T00:05:20.559Z,98448.78
2023-03-27T00:15:24.710Z,98449.04
2023-03-27T00:25:31.635Z,98447.92
2023-03-27T00:35:36.090Z,98439.67
2023-03-27T00:45:39.935Z,98435.83
2023-03-27T00:55:51.874Z,98430.59
2023-03-27T01:05:59.781Z,98431.79
2023-03-27T01:16:32.727Z,98433.98
2023-03-27T01:27:00.607Z,98426.16
2023-03-27T01:37:57.798Z,98424.42
2023-03-27T01:48:15.882Z,98435.50
2023-03-27T01:58:28.662Z,98425.05
2023-03-27T02:08:46.563Z,98428.33
2023-03-27T02:19:03.718Z,98431.77
2023-03-27T02:29:29.446Z,98442.71
2023-03-27T02:39:49.421Z,98451.34
2023-03-27T02:49:58.866Z,98466.08
2023-03-27T03:00:27.986Z,98470.06
2023-03-27T03:10:47.903Z,98469.98
2023-03-27T03:20:56.260Z,98474.20
2023-03-27T03:31:00.693Z,98482.63
2023-03-27T03:41:08.562Z,98491.27
2023-03-27T03:51:12.707Z,98500.77
2023-03-27T04:01:21.042Z,98515.69
2023-03-27T04:11:29.700Z,98518.52
2023-03-27T04:21:54.867Z,98524.17
2023-03-27T04:32:05.819Z,98533.17
2023-03-27T04:42:23.800Z,98538.48
2023-03-27T04:52:30.732Z,98544.30
2023-03-27T05:02:35.074Z,98534.06
2023-03-27T05:12:55.765Z,98525.46
2023-03-27T05:23:02.869Z,98523.23
2023-03-27T05:33:08.289Z,98531.89
2023-03-27T05:43:12.333Z,98553.26
2023-03-27T05:53:16.258Z,98562.11
2023-03-27T06:03:39.293Z,98562.89
2023-03-27T06:13:51.206Z,98569.09
2023-03-27T06:24:05.169Z,98592.57
2023-03-27T06:34:15.115Z,98611.09
2023-03-27T06:44:44.902Z,98630.60
2023-03-27T06:55:18.710Z,98650.34
2023-03-27T07:05:31.955Z,98654.23
2023-03-27T07:15:39.135Z,98670.54
2023-03-27T07:25:44.163Z,98677.33
2023-03-27T07:35:59.594Z,98688.27
2023-03-27T07:46:14.509Z,98688.61
2023-03-27T07:56:18.274Z,98693.49
2023-03-27T08:06:24.037Z,98704.25
2023-03-27T08:16:30.896Z,98705.00
2023-03-27T08:26:37.067Z,98716.77
2023-03-27T08:36:44.591Z,98717.89
2023-03-27T08:47:27.798Z,98709.08
2023-03-27T08:57:37.941Z,98711.58
2023-03-27T09:08:22.823Z,98713.48
2023-03-27T09:19:09.080Z,98737.11
2023-03-27T09:29:26.201Z,98739.55
2023-03-27T09:39:42.197Z,98743.52
2023-03-27T09:50:05.690Z,98759.87
2023-03-27T10:00:34.718Z,98763.66
2023-03-27T10:10:57.665Z,98775.38
2023-03-27T10:21:31.506Z,98785.44
2023-03-27T10:31:40.562Z,98799.73
2023-03-27T10:41:51.675Z,98806.77
2023-03-27T10:52:10.955Z,98813.81
2023-03-27T11:02:48.865Z,98830.58
2023-03-27T11:13:04.317Z,98852.89
2023-03-27T11:23:22.100Z,98885.69
2023-03-27T11:34:32.689Z,98888.21
2023-03-27T11:44:55.930Z,98898.50
2023-03-27T11:55:56.385Z,98938.27
2023-03-27T12:06:31.489Z,98958.73
2023-03-27T12:16:56.069Z,98970.52
2023-03-27T12:27:13.663Z,98984.05
2023-03-27T12:37:52.065Z,99005.57
2023-03-27T12:48:11.429Z,99010.71
2023-03-27T12:58:34.057Z,99024.34
2023-03-27T13:09:19.768Z,99047.34
2023-03-27T13:19:37.143Z,99063.73
2023-03-27T13:29:53.472Z,99072.15
2023-03-27T13:40:23.580Z,99083.36
2023-03-27T13:51:00.637Z,99103.68
2023-03-27T14:01:28.407Z,99093.41
2023-03-27T14:11:51.920Z,99102.23
2023-03-27T14:22:38.369Z,99120.51
2023-03-27T14:32:47.238Z,99146.08
2023-03-27T14:42:51.464Z,99159.37
2023-03-27T14:52:57.868Z,99170.59
2023-03-27T15:03:16.754Z,99208.65
2023-03-27T15:13:24.673Z,99222.34
2023-03-27T15:23:33.752Z,99236.30
2023-03-27T15:33:53.096Z,99266.99
2023-03-27T15:44:12.349Z,99287.09
2023-03-27T15:54:28.035Z,99303.70
2023-03-27T16:04:41.924Z,99312.68
2023-03-27T16:14:49.131Z,99337.39
2023-03-27T16:24:55.322Z,99358.05
2023-03-27T16:35:00.782Z,99377.36
2023-03-27T16:45:05.625Z,99359.96
2023-03-27T16:55:09.779Z,99367.83
2023-03-27T17:05:14.738Z,99376.36
2023-03-27T17:15:18.556Z,99393.52
2023-03-27T17:25:22.288Z,99417.48
2023-03-27T17:35:26.450Z,99430.23
2023-03-27T17:45:30.087Z,99431.38
2023-03-27T17:55:36.902Z,99437.42
2023-03-27T18:05:42.798Z,99452.77
2023-03-27T18:15:57.587Z,99462.49
2023-03-27T18:26:08.470Z,99471.80
2023-03-27T18:36:12.397Z,99476.77
2023-03-27T18:46:18.928Z,99480.73
2023-03-27T18:56:22.830Z,99477.94
2023-03-27T19:06:26.447Z,99479.07
2023-03-27T19:16:51.989Z,99477.14
2023-03-27T19:27:23.967Z,99474.18
2023-03-27T19:37:30.029Z,99474.92
2023-03-27T19:47:33.988Z,99469.28
2023-03-27T19:57:37.897Z,99467.42
2023-03-27T20:07:41.621Z,99464.23
2023-03-27T20:17:46.121Z,99456.62
2023-03-27T20:27:49.822Z,99448.02
2023-03-27T20:37:56.627Z,99443.88
2023-03-27T20:48:04.913Z,99425.64
2023-03-27T20:58:08.867Z,99418.64
2023-03-27T21:08:13.508Z,99418.13
2023-03-27T21:18:19.481Z,99415.44
2023-03-27T21:28:23.155Z,99410.67
2023-03-27T21:38:27.144Z,99413.54
2023-03-27T21:48:31.584Z,99412.35
2023-03-27T21:58:35.385Z,99413.19
2023-03-27T22:08:39.848Z,99416.30
2023-03-27T22:18:45.361Z,99407.25
2023-03-27T22:28:52.675Z,99409.42
2023-03-27T22:38:56.509Z,99413.13
2023-03-27T22:49:16.991Z,99408.40
2023-03-27T22:59:23.038Z,99410.10
2023-03-27T23:09:26.779Z,99418.48
2023-03-27T23:19:30.514Z,99416.18
2023-03-27T23:29:34.299Z,99417.27
2023-03-27T23:39:41.154Z,99417.11
2023-03-27T23:49:44.765Z,99414.83
2023-03-27T23:59:49.189Z,99410.56
